Time;durP1;ratioP1;P1;durP2;ratioP2;P2;SDS_P1;SDS_P2;PMS_P1;PMS_P2;Temp;Humidity;BMP_temperature;BMP_pressure;BME280_temperature;BME280_humidity;BME280_pressure;Samples;Min_cycle;Max_cycle;Signal;HPM_P1;HPM_P2
2023/11/24 00:02:55;;;;;;;8.05;4.30;;;;;;;10.36;79.59;99823.22;10257261;28;20055;-59
2023/11/24 00:07:57;;;;;;;10.38;4.45;;;;;;;10.38;79.52;99851.56;10258215;28;20049;-59
2023/11/24 00:13:01;;;;;;;7.13;3.40;;;;;;;10.43;79.74;99824.97;10234498;28;20061;-59
2023/11/24 00:18:03;;;;;;;7.75;4.00;;;;;;;10.48;79.40;99817.16;10249599;28;20134;-59
2023/11/24 00:23:04;;;;;;;9.10;3.75;;;;;;;10.55;79.64;99829.88;10247748;28;20110;-58
2023/11/24 00:28:06;;;;;;;5.80;2.97;;;;;;;10.55;79.77;99819.94;10238896;28;20062;-59
2023/11/24 00:33:07;;;;;;;10.15;3.45;;;;;;;10.60;80.08;99798.69;10255122;28;20427;-58
2023/11/24 00:38:09;;;;;;;9.43;2.97;;;;;;;10.66;79.99;99797.97;10246764;28;20059;-59
2023/11/24 00:43:10;;;;;;;4.53;2.50;;;;;;;10.72;79.61;99793.66;10248559;28;20060;-58
2023/11/24 00:48:12;;;;;;;5.93;2.75;;;;;;;10.72;79.81;99774.84;10255527;28;20090;-58
2023/11/24 00:53:13;;;;;;;5.40;2.17;;;;;;;10.76;79.75;99797.63;10243227;28;20047;-58
2023/11/24 00:58:15;;;;;;;6.30;2.13;;;;;;;10.80;79.70;99795.38;10253027;28;20061;-59
2023/11/24 01:03:16;;;;;;;5.15;2.08;;;;;;;10.85;79.69;99787.59;10253352;28;20055;-59
2023/11/24 01:08:17;;;;;;;2.60;1.38;;;;;;;10.91;79.65;99784.13;10253947;28;20065;-59
2023/11/24 01:13:19;;;;;;;3.78;1.23;;;;;;;10.90;79.61;99786.00;10250125;28;20047;-59
2023/11/24 01:18:21;;;;;;;2.40;1.23;;;;;;;10.86;80.09;99797.31;10251835;28;20066;-58
2023/11/24 01:23:23;;;;;;;2.17;0.85;;;;;;;10.86;79.96;99792.78;10253019;28;20057;-58
2023/11/24 01:28:25;;;;;;;2.35;0.95;;;;;;;10.92;80.05;99810.00;10255061;28;20047;-58
2023/11/24 01:33:27;;;;;;;3.45;1.13;;;;;;;10.86;80.28;99802.69;10255354;28;20134;-56
2023/11/24 01:38:28;;;;;;;1.80;1.00;;;;;;;10.90;80.48;99820.97;10252482;28;20047;-57
2023/11/24 01:43:29;;;;;;;2.67;1.10;;;;;;;10.95;80.33;99889.47;10263852;28;20130;-58
2023/11/24 01:48:31;;;;;;;2.00;0.20;;;;;;;10.47;81.00;99879.19;10264887;28;20059;-57
2023/11/24 01:53:33;;;;;;;3.35;0.40;;;;;;;10.02;80.80;99875.63;10267114;28;20055;-58
2023/11/24 01:58:35;;;;;;;7.03;0.28;;;;;;;9.70;80.52;99893.72;10260198;28;20063;-58
2023/11/24 02:03:36;;;;;;;4.03;0.30;;;;;;;9.48;80.13;99890.88;10260868;28;20058;-58
2023/11/24 02:08:38;;;;;;;6.25;0.55;;;;;;;9.18;79.61;99883.72;10262661;28;20058;-57
2023/11/24 02:13:40;;;;;;;2.22;0.50;;;;;;;9.03;79.59;99889.88;10256557;28;20417;-57
2023/11/24 02:18:41;;;;;;;5.88;0.68;;;;;;;8.93;79.47;99884.75;10245435;28;20450;-59
2023/11/24 02:23:43;;;;;;;7.90;0.75;;;;;;;8.84;78.86;99877.75;10258518;28;20055;-58
2023/11/24 02:28:44;;;;;;;2.40;0.50;;;;;;;8.80;78.93;99870.25;10262430;28;20051;-58
2023/11/24 02:33:49;;;;;;;3.70;0.40;;;;;;;8.85;78.64;99873.25;10244103;28;20047;-58
2023/11/24 02:38:51;;;;;;;5.00;0.80;;;;;;;8.95;78.05;99862.28;10244738;28;20487;-59
2023/11/24 02:43:53;;;;;;;8.10;1.35;;;;;;;8.97;78.13;99885.22;10265724;28;20080;-59
2023/11/24 02:48:54;;;;;;;6.30;0.70;;;;;;;8.99;77.65;99877.00;10259776;28;20062;-59
2023/11/24 02:53:56;;;;;;;5.75;0.80;;;;;;;9.03;77.58;99889.03;10264639;28;20066;-59
2023/11/24 02:58:57;;;;;;;5.22;0.43;;;;;;;9.16;77.20;99889.28;10260536;28;20054;-59
2023/11/24 03:03:59;;;;;;;5.03;1.25;;;;;;;9.16;76.98;99873.19;10248490;28;20051;-59
2023/11/24 03:09:06;;;;;;;7.65;1.20;;;;;;;9.16;76.99;99875.88;10259952;28;20051;-60
2023/11/24 03:14:07;;;;;;;7.33;0.60;;;;;;;9.16;76.73;99869.66;10263440;28;20047;-60
2023/11/24 03:19:09;;;;;;;9.98;1.73;;;;;;;9.12;76.47;99863.81;10260259;28;20075;-59
2023/11/24 03:24:10;;;;;;;7.10;0.68;;;;;;;9.01;76.73;99889.22;10258733;28;20055;-59
2023/11/24 03:29:12;;;;;;;3.67;0.40;;;;;;;8.98;76.56;99913.69;10259074;28;20059;-59
2023/11/24 03:34:13;;;;;;;5.57;0.50;;;;;;;9.02;75.81;99911.50;10241411;28;20047;-59
2023/11/24 03:39:15;;;;;;;9.27;0.60;;;;;;;9.07;74.83;99883.13;10253088;28;20046;-59
2023/11/24 03:44:16;;;;;;;6.75;0.30;;;;;;;8.92;73.36;99868.81;10234248;28;20047;-59
2023/11/24 03:49:18;;;;;;;2.50;0.20;;;;;;;8.98;71.67;99861.91;10227516;28;20047;-59
2023/11/24 03:54:21;;;;;;;2.53;0.20;;;;;;;9.04;71.05;99869.25;10252470;28;20047;-59
2023/11/24 03:59:23;;;;;;;1.33;0.20;;;;;;;9.03;71.16;99867.59;10255694;28;20055;-59
2023/11/24 04:04:24;;;;;;;1.23;0.10;;;;;;;9.02;71.23;99868.59;10250820;28;20513;-59
2023/11/24 04:09:26;;;;;;;3.67;0.43;;;;;;;8.98;70.87;99886.06;10253351;28;20059;-58
2023/11/24 04:14:27;;;;;;;1.95;0.20;;;;;;;8.88;71.03;99888.94;10255199;28;20146;-58
2023/11/24 04:19:29;;;;;;;3.83;0.17;;;;;;;8.76;70.88;99893.88;10253260;28;20059;-58
2023/11/24 04:24:30;;;;;;;3.50;0.20;;;;;;;8.70;70.77;99883.88;10252636;28;20062;-59
2023/11/24 04:29:31;;;;;;;7.57;0.30;;;;;;;8.59;70.86;99887.78;10252803;28;20147;-58
2023/11/24 04:34:33;;;;;;;3.85;0.10;;;;;;;8.54;70.77;99879.41;10256502;28;20053;-57
2023/11/24 04:39:34;;;;;;;2.33;0.43;;;;;;;8.56;70.07;99884.59;10251580;28;20074;-57
2023/11/24 04:44:36;;;;;;;3.35;0.25;;;;;;;8.61;69.54;99891.13;10272311;28;20671;-57
2023/11/24 04:49:38;;;;;;;4.00;0.25;;;;;;;8.63;69.52;99872.16;10289689;28;20080;-56
2023/11/24 04:54:39;;;;;;;3.22;1.27;;;;;;;8.60;69.41;99884.06;10297621;28;20050;-57
2023/11/24 04:59:41;;;;;;;2.25;0.22;;;;;;;8.58;69.45;99887.94;10293965;28;20078;-58
2023/11/24 05:04:42;;;;;;;2.03;0.28;;;;;;;8.48;69.79;99875.59;10294533;28;20401;-56
2023/11/24 05:09:45;;;;;;;2.55;0.20;;;;;;;8.50;69.49;99875.41;10291937;28;20591;-58
2023/11/24 05:14:46;;;;;;;5.60;0.40;;;;;;;8.61;69.28;99869.69;10300460;28;20066;-57
2023/11/24 05:19:48;;;;;;;1.30;0.20;;;;;;;8.68;69.22;99862.59;10302505;28;20053;-57
2023/11/24 05:24:49;;;;;;;3.55;0.40;;;;;;;8.77;69.29;99858.03;10296773;28;20054;-57
2023/11/24 05:29:51;;;;;;;7.75;1.25;;;;;;;8.69;69.56;99842.84;10300665;28;20501;-56
2023/11/24 05:34:53;;;;;;;4.72;0.32;;;;;;;8.72;69.68;99844.31;10301703;28;20061;-58
2023/11/24 05:39:55;;;;;;;7.57;0.75;;;;;;;8.73;69.49;99836.13;10299393;28;20073;-58
2023/11/24 05:44:56;;;;;;;9.68;1.13;;;;;;;8.75;69.79;99833.28;10259721;28;20109;-57
2023/11/24 05:49:58;;;;;;;2.65;0.65;;;;;;;8.80;69.86;99828.19;10254340;28;20059;-57
2023/11/24 05:55:03;;;;;;;8.43;0.88;;;;;;;8.84;69.84;99801.88;10261468;28;20057;-57
2023/11/24 06:00:08;;;;;;;9.15;1.17;;;;;;;8.88;70.26;99793.28;10260415;28;20047;-58
2023/11/24 06:05:10;;;;;;;12.32;1.02;;;;;;;8.96;70.33;99778.16;10256540;28;20065;-57
2023/11/24 06:10:12;;;;;;;6.18;0.93;;;;;;;8.94;70.56;99781.03;10263378;28;20050;-58
2023/11/24 06:15:13;;;;;;;10.63;1.23;;;;;;;8.94;70.52;99781.03;10261733;28;20062;-59
2023/11/24 06:20:18;;;;;;;8.75;0.70;;;;;;;8.96;70.53;99765.59;10242667;28;20498;-59
2023/11/24 06:25:19;;;;;;;9.52;0.93;;;;;;;8.98;70.76;99778.81;10264328;28;20431;-59
2023/11/24 06:30:21;;;;;;;8.43;0.80;;;;;;;8.98;70.50;99768.09;10267355;28;20055;-59
2023/11/24 06:35:22;;;;;;;8.85;1.58;;;;;;;8.90;71.01;99766.31;10262391;28;20066;-59
2023/11/24 06:40:24;;;;;;;10.00;1.30;;;;;;;8.92;71.07;99758.94;10265781;28;20058;-59
2023/11/24 06:45:25;;;;;;;11.40;1.65;;;;;;;8.80;70.94;99755.00;10262654;28;20071;-59
2023/11/24 06:50:27;;;;;;;10.60;1.00;;;;;;;8.82;70.97;99745.78;10329890;23;20054;-84
2023/11/24 06:55:30;;;;;;;8.95;1.75;;;;;;;8.77;70.92;99761.56;10302482;28;20099;-85
2023/11/24 07:00:32;;;;;;;13.02;1.02;;;;;;;8.72;71.21;99754.03;10326064;28;20031;-84
2023/11/24 07:05:35;;;;;;;8.63;0.60;;;;;;;8.63;71.06;99751.59;10269841;23;20117;-64
2023/11/24 07:10:37;;;;;;;2.88;0.50;;;;;;;8.58;71.13;99760.19;10276545;28;20061;-64
2023/11/24 07:15:39;;;;;;;9.20;0.88;;;;;;;8.69;70.77;99761.63;10256759;28;20065;-64
2023/11/24 07:20:40;;;;;;;5.80;0.47;;;;;;;8.79;70.24;99762.22;10276752;28;20046;-64
2023/11/24 07:25:43;;;;;;;6.10;1.00;;;;;;;8.87;70.03;99770.19;10326429;28;20038;-62
2023/11/24 07:30:46;;;;;;;2.80;0.57;;;;;;;8.97;69.54;99761.91;10329386;28;20042;-63
2023/11/24 07:35:47;;;;;;;2.05;0.45;;;;;;;9.02;69.18;99748.78;10328696;28;20043;-62
2023/11/24 07:40:49;;;;;;;8.98;3.28;;;;;;;9.08;68.78;99753.44;10326590;28;20070;-63
2023/11/24 07:45:51;;;;;;;4.25;0.52;;;;;;;9.16;68.40;99738.28;10329530;28;20046;-63
2023/11/24 07:50:53;;;;;;;7.82;1.02;;;;;;;9.18;67.82;99750.50;10331010;28;20038;-63
2023/11/24 07:55:55;;;;;;;3.17;0.93;;;;;;;9.15;67.67;99748.19;10330896;28;20051;-63
2023/11/24 08:00:56;;;;;;;5.75;0.60;;;;;;;9.19;67.50;99736.06;10329883;28;20057;-63
2023/11/24 08:06:06;;;;;;;2.70;1.08;;;;;;;9.02;67.01;99754.16;10329834;28;20038;-63
2023/11/24 08:11:08;;;;;;;5.75;0.50;;;;;;;8.94;66.66;99735.47;10331102;28;20046;-63
2023/11/24 08:16:11;;;;;;;1.17;0.20;;;;;;;8.77;67.10;99724.06;10333075;28;20050;-63
2023/11/24 08:21:13;;;;;;;1.88;0.35;;;;;;;8.76;67.33;99717.00;10330030;28;20043;-63
2023/11/24 08:26:17;;;;;;;2.70;0.40;;;;;;;8.87;67.15;99691.66;10334080;28;20035;-63
2023/11/24 08:31:20;;;;;;;2.30;0.40;;;;;;;8.78;67.46;99688.19;10329938;28;20043;-66
2023/11/24 08:36:25;;;;;;;2.35;0.40;;;;;;;8.69;67.84;99692.78;10331735;28;20050;-64
2023/11/24 08:41:27;;;;;;;3.47;0.32;;;;;;;8.73;67.83;99680.69;10322298;28;20051;-64
2023/11/24 08:46:42;;;;;;;2.60;0.82;;;;;;;8.78;67.72;99672.13;10321849;28;20043;-63
2023/11/24 08:51:44;;;;;;;2.30;0.30;;;;;;;8.88;67.76;99677.22;10337508;28;20054;-62
2023/11/24 08:56:45;;;;;;;5.03;0.52;;;;;;;8.89;68.16;99674.38;10339566;28;20034;-63
2023/11/24 09:01:49;;;;;;;2.70;0.50;;;;;;;8.96;68.21;99660.22;10337090;28;20058;-64
2023/11/24 09:06:51;;;;;;;2.28;0.28;;;;;;;9.04;68.38;99652.09;10338298;28;20027;-63
2023/11/24 09:11:52;;;;;;;1.73;0.47;;;;;;;9.11;68.24;99632.41;10336188;28;20127;-63
2023/11/24 09:16:56;;;;;;;2.42;0.45;;;;;;;9.22;68.27;99631.16;10339149;28;20110;-64
2023/11/24 09:22:03;;;;;;;5.25;0.50;;;;;;;8.95;68.56;99640.63;10323764;28;20125;-64
2023/11/24 09:27:05;;;;;;;3.35;0.50;;;;;;;8.68;67.91;99634.84;10338719;28;20050;-63
2023/11/24 09:32:06;;;;;;;3.63;0.40;;;;;;;8.44;69.22;99632.41;10339416;28;20038;-63
2023/11/24 09:37:09;;;;;;;2.10;0.40;;;;;;;8.30;70.21;99620.59;10339333;28;20110;-63
2023/11/24 09:42:13;;;;;;;3.47;0.50;;;;;;;8.12;70.46;99621.72;10320292;28;20137;-62
2023/11/24 09:47:20;;;;;;;1.73;0.50;;;;;;;8.23;70.80;99620.47;10279879;28;20118;-61
2023/11/24 09:52:24;;;;;;;2.85;0.30;;;;;;;8.38;70.43;99623.19;10288676;28;20054;-61
2023/11/24 09:57:25;;;;;;;6.25;0.30;;;;;;;8.53;70.22;99620.59;10284863;28;20232;-61
2023/11/24 10:02:27;;;;;;;4.00;0.50;;;;;;;8.19;70.74;99635.22;10281909;28;20490;-62
2023/11/24 10:07:29;;;;;;;0.57;0.20;;;;;;;7.70;71.99;99609.63;10282381;28;20057;-62
2023/11/24 10:12:31;;;;;;;4.78;0.45;;;;;;;7.59;72.25;99601.97;10262124;28;20713;-62
2023/11/24 10:17:34;;;;;;;0.90;0.20;;;;;;;7.29;73.12;99604.47;10286164;28;20059;-62
2023/11/24 10:22:35;;;;;;;2.00;0.20;;;;;;;7.21;72.53;99595.63;10288042;28;20150;-61
2023/11/24 10:27:40;;;;;;;1.95;0.10;;;;;;;7.15;72.14;99586.47;10290064;28;20057;-61
2023/11/24 10:32:43;;;;;;;1.55;0.10;;;;;;;7.17;72.39;99556.88;10278759;28;20110;-62
2023/11/24 10:37:45;;;;;;;1.48;0.00;;;;;;;7.23;71.58;99545.53;10283038;28;20050;-63
2023/11/24 10:42:47;;;;;;;2.35;0.10;;;;;;;7.28;70.61;99549.31;10282548;28;20046;-61
2023/11/24 10:48:14;;;;;;;2.42;0.70;;;;;;;7.23;70.22;99548.19;10285780;28;20073;-61
2023/11/24 10:53:34;;;;;;;1.85;0.55;;;;;;;7.48;68.02;99544.34;10284829;28;20058;-66
2023/11/24 10:58:36;;;;;;;2.13;0.10;;;;;;;7.75;67.44;99532.31;10280066;28;20465;-66
2023/11/24 11:03:38;;;;;;;1.00;0.20;;;;;;;7.82;66.18;99516.41;10277236;28;20047;-64
2023/11/24 11:08:56;;;;;;;1.00;0.10;;;;;;;8.06;65.65;99544.81;10277030;28;20502;-67
2023/11/24 11:13:58;;;;;;;0.93;0.32;;;;;;;8.22;65.11;99525.09;10278756;28;20058;-64
2023/11/24 11:19:32;;;;;;;1.05;0.20;;;;;;;8.33;64.24;99522.00;10275869;28;20062;-64
2023/11/24 11:24:34;;;;;;;2.20;0.57;;;;;;;8.27;64.66;99495.94;10276920;28;20047;-64
2023/11/24 11:29:36;;;;;;;5.50;0.20;;;;;;;8.32;64.52;99503.44;10273971;28;20133;-64
2023/11/24 11:34:37;;;;;;;1.00;0.10;;;;;;;8.62;64.07;99482.06;10276515;28;20058;-62
2023/11/24 11:39:53;;;;;;;0.93;0.20;;;;;;;8.57;64.11;99466.53;10273557;28;20417;-64
2023/11/24 11:44:58;;;;;;;1.40;0.10;;;;;;;8.62;63.76;99469.47;10277003;28;20075;-65
2023/11/24 11:50:05;;;;;;;3.30;0.40;;;;;;;8.73;63.71;99457.50;10276428;28;20129;-65
2023/11/24 11:55:06;;;;;;;0.80;0.30;;;;;;;8.81;62.37;99448.53;10279156;28;20043;-65
2023/11/24 12:00:09;;;;;;;0.50;0.20;;;;;;;8.74;61.04;99437.69;10275262;28;20110;-65
2023/11/24 12:05:14;;;;;;;1.65;0.20;;;;;;;8.68;61.21;99439.28;10273106;28;20051;-64
2023/11/24 12:10:16;;;;;;;1.73;0.10;;;;;;;8.73;61.55;99412.75;10278486;28;20058;-64
2023/11/24 12:15:17;;;;;;;2.20;0.40;;;;;;;8.76;61.07;99394.66;10275966;28;20101;-65
2023/11/24 12:20:19;;;;;;;7.10;0.50;;;;;;;8.87;61.38;99400.34;10280833;28;20051;-63
2023/11/24 12:25:21;;;;;;;1.42;0.35;;;;;;;8.60;61.43;99401.03;10277303;28;20043;-64
2023/11/24 12:30:23;;;;;;;1.75;0.20;;;;;;;8.38;62.95;99411.66;10263028;28;20051;-65
2023/11/24 12:35:27;;;;;;;1.33;0.10;;;;;;;8.41;62.94;99399.72;10262706;28;20050;-65
2023/11/24 12:40:32;;;;;;;1.35;0.10;;;;;;;8.27;62.85;99415.63;10258860;28;20525;-64
2023/11/24 12:45:35;;;;;;;1.88;0.10;;;;;;;8.25;63.67;99408.78;10279099;28;20591;-64
2023/11/24 12:50:40;;;;;;;0.30;0.10;;;;;;;8.17;63.41;99411.53;10276726;28;20055;-65
2023/11/24 12:55:42;;;;;;;0.05;0.00;;;;;;;8.17;62.55;99404.34;10276985;28;20057;-64
2023/11/24 13:00:44;;;;;;;0.22;0.10;;;;;;;8.28;62.87;99385.16;10271669;28;20049;-64
2023/11/24 13:05:46;;;;;;;0.98;0.30;;;;;;;8.47;62.69;99378.44;10272291;28;20058;-64
2023/11/24 13:10:48;;;;;;;1.35;0.20;;;;;;;8.51;62.63;99371.69;10280429;28;20050;-64
2023/11/24 13:15:51;;;;;;;1.80;0.20;;;;;;;8.44;62.53;99372.63;10280676;28;20058;-64
2023/11/24 13:20:52;;;;;;;0.95;0.10;;;;;;;8.52;62.89;99367.97;10279595;28;20414;-63
2023/11/24 13:25:53;;;;;;;2.05;0.20;;;;;;;8.46;61.99;99360.69;10276912;28;20162;-63
2023/11/24 13:30:55;;;;;;;2.30;0.10;;;;;;;8.55;62.44;99358.75;10262893;28;20065;-64
2023/11/24 13:35:57;;;;;;;1.27;0.20;;;;;;;8.66;62.43;99352.91;10285436;28;20063;-65
2023/11/24 13:40:58;;;;;;;1.35;0.20;;;;;;;8.79;61.71;99337.97;10284663;28;20062;-65
2023/11/24 13:46:02;;;;;;;0.43;0.20;;;;;;;8.89;61.90;99352.75;10288479;28;20047;-64
2023/11/24 13:51:06;;;;;;;2.00;0.20;;;;;;;9.21;60.33;99371.22;10285049;28;20055;-64
2023/11/24 13:56:08;;;;;;;0.28;0.15;;;;;;;9.38;60.35;99399.44;10280772;28;20137;-64
2023/11/24 14:01:10;;;;;;;0.82;0.10;;;;;;;7.71;64.17;99420.53;10286257;28;20063;-63
2023/11/24 14:06:13;;;;;;;1.90;0.17;;;;;;;6.73;67.54;99424.66;10283809;28;20078;-65
2023/11/24 14:11:15;;;;;;;0.30;0.10;;;;;;;6.64;67.38;99407.03;10290370;28;20054;-64
2023/11/24 14:16:16;;;;;;;1.02;0.10;;;;;;;6.35;68.07;99395.13;10290952;28;20047;-64
2023/11/24 14:21:18;;;;;;;0.40;0.20;;;;;;;6.01;68.44;99411.41;10290039;28;20051;-64
2023/11/24 14:26:20;;;;;;;1.58;0.20;;;;;;;5.93;69.92;99405.03;10290304;28;20059;-67
2023/11/24 14:31:22;;;;;;;0.55;0.10;;;;;;;5.94;69.55;99390.72;10277165;28;20050;-66
2023/11/24 14:36:23;;;;;;;0.85;0.22;;;;;;;5.73;70.22;99399.22;10282821;28;20061;-67
2023/11/24 14:41:25;;;;;;;2.72;0.30;;;;;;;5.73;70.35;99401.06;10283008;28;20065;-67
2023/11/24 14:46:31;;;;;;;0.65;0.30;;;;;;;5.81;69.45;99381.56;10277314;28;20051;-66
2023/11/24 14:51:35;;;;;;;1.73;0.35;;;;;;;5.91;69.67;99382.22;10281489;28;20051;-67
2023/11/24 14:56:39;;;;;;;0.45;0.32;;;;;;;5.87;70.13;99383.56;10279258;28;20057;-66
2023/11/24 15:01:42;;;;;;;1.13;0.40;;;;;;;5.76;70.17;99406.06;10277536;28;20046;-67
2023/11/24 15:06:49;;;;;;;2.75;0.70;;;;;;;5.70;70.85;99407.56;10281959;28;20051;-66
2023/11/24 15:11:51;;;;;;;5.00;0.28;;;;;;;5.66;70.36;99384.91;10278218;28;20043;-68
2023/11/24 15:16:57;;;;;;;7.25;1.23;;;;;;;5.66;70.01;99394.75;10283920;28;20129;-66
2023/11/24 15:22:26;;;;;;;3.67;0.40;;;;;;;5.70;69.19;99396.88;10287242;28;20050;-64
2023/11/24 15:27:21;;;;;;;7.47;0.40;;;;;;;5.78;68.73;99408.56;10276180;28;20066;-64
2023/11/24 15:32:23;;;;;;;3.50;0.30;;;;;;;5.83;67.44;99412.38;10300304;28;20046;-64
2023/11/24 15:37:25;;;;;;;0.40;0.17;;;;;;;5.85;67.32;99397.06;10280791;28;20051;-62
2023/11/24 15:42:29;;;;;;;2.65;0.45;;;;;;;5.87;68.21;99408.38;10293238;28;20049;-62
2023/11/24 15:47:30;;;;;;;1.90;0.30;;;;;;;5.90;66.88;99409.88;10299685;28;20698;-62
2023/11/24 15:52:33;;;;;;;10.15;0.40;;;;;;;5.95;67.29;99404.91;10297750;28;20138;-63
2023/11/24 15:57:35;;;;;;;2.70;0.30;;;;;;;5.92;67.74;99399.88;10303732;28;20160;-63
2023/11/24 16:02:37;;;;;;;3.90;0.50;;;;;;;5.96;67.20;99411.88;10308263;28;20110;-63
2023/11/24 16:07:39;;;;;;;4.82;1.23;;;;;;;5.99;66.60;99424.91;10306242;28;20055;-59
2023/11/24 16:12:44;;;;;;;3.53;0.60;;;;;;;6.12;66.54;99453.72;10278248;28;20050;-59
2023/11/24 16:17:47;;;;;;;2.47;0.40;;;;;;;6.09;66.60;99470.06;10277485;28;20057;-58
2023/11/24 16:22:49;;;;;;;1.60;0.60;;;;;;;5.96;67.42;99494.56;10279420;28;20061;-59
2023/11/24 16:27:50;;;;;;;3.30;0.30;;;;;;;5.57;69.30;99495.22;10275073;28;20050;-71
2023/11/24 16:32:52;;;;;;;2.53;0.20;;;;;;;4.93;71.61;99442.44;10277746;28;20154;-59
2023/11/24 16:37:53;;;;;;;3.05;0.50;;;;;;;4.69;72.39;99437.88;10276750;28;20498;-59
2023/11/24 16:42:55;;;;;;;3.95;0.75;;;;;;;4.46;72.88;99432.28;10269328;28;20055;-59
2023/11/24 16:47:56;;;;;;;7.35;1.27;;;;;;;4.39;72.66;99441.91;10274454;28;20049;-59
2023/11/24 16:52:58;;;;;;;1.35;0.52;;;;;;;4.27;73.24;99446.69;10292101;28;20160;-59
2023/11/24 16:57:59;;;;;;;1.65;0.57;;;;;;;4.33;73.42;99434.56;10283517;28;20047;-59
2023/11/24 17:03:00;;;;;;;6.25;0.80;;;;;;;4.33;72.86;99438.06;10295893;28;20071;-60
2023/11/24 17:08:06;;;;;;;6.30;1.65;;;;;;;4.29;73.48;99420.75;10297421;28;20039;-58
2023/11/24 17:13:08;;;;;;;4.03;1.40;;;;;;;4.25;73.57;99429.22;10293191;28;20146;-58
2023/11/24 17:18:09;;;;;;;2.83;0.57;;;;;;;4.16;74.03;99437.13;10294734;28;20059;-59
2023/11/24 17:23:16;;;;;;;3.90;0.80;;;;;;;4.20;75.20;99437.66;10299486;28;20723;-58
2023/11/24 17:28:17;;;;;;;1.00;0.40;;;;;;;4.27;74.62;99433.38;10302123;28;20051;-59
2023/11/24 17:33:19;;;;;;;2.15;0.75;;;;;;;4.37;74.66;99439.41;10303883;28;20080;-59
2023/11/24 17:38:21;;;;;;;3.80;0.50;;;;;;;4.52;74.83;99439.66;10314242;28;20390;-60
2023/11/24 17:43:22;;;;;;;0.88;0.40;;;;;;;4.61;74.58;99426.38;10307442;28;20497;-60
2023/11/24 17:48:24;;;;;;;2.10;0.40;;;;;;;4.70;73.68;99426.25;10301748;28;20130;-59
2023/11/24 17:53:25;;;;;;;6.15;0.45;;;;;;;4.82;73.26;99418.81;10299275;28;20071;-58
2023/11/24 17:58:27;;;;;;;2.58;0.30;;;;;;;4.91;72.42;99417.81;10284551;28;20061;-59
2023/11/24 18:03:28;;;;;;;0.60;0.28;;;;;;;4.97;71.81;99427.81;10288670;28;20059;-59
2023/11/24 18:08:33;;;;;;;2.40;0.30;;;;;;;4.96;72.19;99415.50;10283046;28;20093;-59
2023/11/24 18:13:35;;;;;;;1.70;0.43;;;;;;;4.93;72.44;99415.81;10286770;28;20143;-59
2023/11/24 18:18:39;;;;;;;0.85;0.30;;;;;;;5.01;72.31;99408.84;10278233;28;20528;-59
2023/11/24 18:23:42;;;;;;;2.83;0.30;;;;;;;5.00;72.23;99410.69;10283527;28;20042;-58
2023/11/24 18:28:46;;;;;;;2.30;0.20;;;;;;;5.05;71.41;99402.19;10281551;28;20051;-58
2023/11/24 18:33:48;;;;;;;0.77;0.50;;;;;;;5.03;70.66;99398.88;10282329;28;20081;-58
2023/11/24 18:38:49;;;;;;;1.70;0.30;;;;;;;4.96;71.20;99399.53;10283798;28;20053;-59
2023/11/24 18:43:51;;;;;;;0.30;0.20;;;;;;;4.90;70.34;99391.38;10265556;28;20051;-58
2023/11/24 18:48:52;;;;;;;2.13;0.40;;;;;;;4.84;70.35;99389.34;10264965;28;20054;-58
2023/11/24 18:53:55;;;;;;;3.80;0.40;;;;;;;4.78;70.35;99390.84;10284373;28;20073;-58
2023/11/24 18:58:56;;;;;;;1.40;0.20;;;;;;;4.76;69.90;99398.16;10281358;28;20039;-58
2023/11/24 19:03:58;;;;;;;1.38;0.20;;;;;;;4.78;69.08;99406.81;10293631;28;20054;-58
2023/11/24 19:08:59;;;;;;;0.75;0.10;;;;;;;4.82;69.65;99386.00;10310546;28;20062;-59
2023/11/24 19:14:01;;;;;;;4.18;0.57;;;;;;;4.80;69.33;99393.31;10309824;28;20116;-59
2023/11/24 19:19:03;;;;;;;1.30;0.17;;;;;;;4.84;69.03;99378.69;10294874;28;20086;-58
2023/11/24 19:24:05;;;;;;;6.28;0.20;;;;;;;4.86;68.55;99366.91;10310070;28;20050;-59
2023/11/24 19:29:07;;;;;;;1.75;0.13;;;;;;;4.92;68.51;99344.94;10310953;28;20110;-59
2023/11/24 19:34:12;;;;;;;2.33;0.20;;;;;;;4.99;67.56;99338.94;10319229;28;20054;-59
2023/11/24 19:39:14;;;;;;;2.55;1.17;;;;;;;4.96;67.71;99340.13;10308954;28;20054;-59
2023/11/24 19:44:15;;;;;;;0.32;0.10;;;;;;;4.96;67.72;99351.59;10300227;28;20054;-59
2023/11/24 19:49:17;;;;;;;4.22;0.22;;;;;;;5.00;68.37;99348.63;10291033;28;20127;-59
2023/11/24 19:54:18;;;;;;;9.57;0.75;;;;;;;5.02;68.58;99350.09;10310943;28;20074;-59
2023/11/24 19:59:19;;;;;;;1.40;0.30;;;;;;;5.01;68.35;99363.59;10304616;28;20406;-59
2023/11/24 20:04:21;;;;;;;1.63;0.32;;;;;;;4.96;68.42;99361.41;10305160;28;20055;-58
2023/11/24 20:09:22;;;;;;;2.42;0.30;;;;;;;4.97;68.63;99355.91;10305495;28;20066;-59
2023/11/24 20:14:24;;;;;;;2.45;0.55;;;;;;;5.04;68.89;99360.59;10291577;28;20047;-58
2023/11/24 20:19:25;;;;;;;2.40;0.40;;;;;;;4.95;68.25;99354.41;10282415;28;20082;-59
2023/11/24 20:24:27;;;;;;;2.08;0.47;;;;;;;4.96;68.77;99364.91;10284362;28;20070;-58
2023/11/24 20:29:28;;;;;;;3.35;0.40;;;;;;;5.02;69.03;99354.59;10272638;28;20042;-59
2023/11/24 20:34:31;;;;;;;1.40;0.55;;;;;;;5.05;69.25;99311.66;10263098;28;20058;-59
2023/11/24 20:39:32;;;;;;;4.57;0.47;;;;;;;5.08;68.54;99327.31;10274613;28;20054;-59
2023/11/24 20:44:35;;;;;;;2.47;0.40;;;;;;;5.15;68.97;99345.13;10276151;28;20053;-59
2023/11/24 20:49:37;;;;;;;3.70;0.57;;;;;;;5.20;68.90;99352.59;10276649;28;20062;-58
2023/11/24 20:54:39;;;;;;;2.25;0.40;;;;;;;5.22;68.77;99328.47;10279801;28;20467;-59
2023/11/24 20:59:40;;;;;;;2.97;0.40;;;;;;;5.45;67.70;99340.13;10281962;28;20059;-59
2023/11/24 21:04:42;;;;;;;0.98;0.30;;;;;;;5.31;68.95;99343.44;10283289;28;20051;-58
2023/11/24 21:09:43;;;;;;;3.15;0.40;;;;;;;5.26;69.34;99351.94;10280852;28;20047;-58
2023/11/24 21:14:45;;;;;;;3.55;0.55;;;;;;;5.31;69.58;99357.63;10276125;28;20055;-58
2023/11/24 21:19:47;;;;;;;1.25;0.47;;;;;;;5.41;70.04;99361.94;10276879;28;20039;-59
2023/11/24 21:24:51;;;;;;;1.60;0.28;;;;;;;5.37;69.62;99353.44;10281013;28;20687;-59
2023/11/24 21:29:52;;;;;;;1.23;0.20;;;;;;;5.31;68.89;99354.09;10274594;28;20917;-57
2023/11/24 21:34:54;;;;;;;0.75;0.20;;;;;;;5.29;68.85;99356.94;10277686;28;20047;-58
2023/11/24 21:40:00;;;;;;;1.20;0.20;;;;;;;5.30;69.13;99379.91;10273168;28;20146;-59
2023/11/24 21:45:03;;;;;;;1.17;0.35;;;;;;;5.33;69.35;99394.72;10261502;28;20075;-58
2023/11/24 21:50:06;;;;;;;0.80;0.10;;;;;;;5.40;69.26;99402.91;10258769;28;20043;-59
2023/11/24 21:55:09;;;;;;;1.00;0.10;;;;;;;5.43;69.12;99391.91;10282016;28;20710;-59
2023/11/24 22:00:16;;;;;;;0.77;0.10;;;;;;;5.49;68.96;99396.56;10287805;28;20521;-59
2023/11/24 22:05:17;;;;;;;0.47;0.08;;;;;;;5.48;68.97;99402.91;10282955;28;20398;-59
2023/11/24 22:10:19;;;;;;;2.70;0.30;;;;;;;5.49;69.13;99409.88;10287098;28;20498;-58
2023/11/24 22:15:20;;;;;;;3.30;0.68;;;;;;;5.47;69.04;99412.75;10283178;28;20494;-59
2023/11/24 22:20:22;;;;;;;2.22;0.63;;;;;;;5.53;68.32;99405.94;10284544;28;20061;-58
2023/11/24 22:25:23;;;;;;;1.40;0.20;;;;;;;5.52;68.22;99410.41;10287263;28;20050;-59
2023/11/24 22:30:25;;;;;;;1.83;0.25;;;;;;;5.43;68.20;99424.75;10279989;28;20379;-58
2023/11/24 22:35:27;;;;;;;1.63;1.08;;;;;;;5.33;67.65;99432.03;10361585;23;20092;-82
2023/11/24 22:40:28;;;;;;;0.85;0.10;;;;;;;5.23;68.19;99444.69;10363588;28;20092;-82
2023/11/24 22:45:31;;;;;;;3.95;0.10;;;;;;;5.19;67.60;99454.81;10352703;28;20053;-82
2023/11/24 22:50:33;;;;;;;0.40;0.20;;;;;;;5.08;67.83;99490.63;10326707;28;20054;-83
2023/11/24 22:55:35;;;;;;;1.20;0.17;;;;;;;4.97;68.34;99493.56;10322967;28;20479;-83
2023/11/24 23:00:40;;;;;;;1.00;0.17;;;;;;;4.88;69.02;99511.34;10303404;28;20050;-82
2023/11/24 23:05:45;;;;;;;2.30;0.22;;;;;;;4.82;68.90;99504.00;10316962;28;20056;-82
2023/11/24 23:10:48;;;;;;;1.02;0.20;;;;;;;4.82;69.28;99514.66;10303069;28;20042;-83
2023/11/24 23:15:50;;;;;;;0.90;0.30;;;;;;;4.81;69.31;99526.28;10325718;28;20121;-81
2023/11/24 23:20:52;;;;;;;1.05;0.20;;;;;;;4.71;68.98;99529.06;10331395;28;20170;-81
2023/11/24 23:25:53;;;;;;;4.57;0.25;;;;;;;4.72;69.13;99544.06;10318167;28;20043;-82
2023/11/24 23:30:55;;;;;;;2.78;0.75;;;;;;;4.72;69.06;99541.41;10323686;28;20068;-82
2023/11/24 23:35:59;;;;;;;4.53;0.88;;;;;;;4.71;69.27;99550.34;10330908;28;20093;-83
2023/11/24 23:41:01;;;;;;;0.75;0.25;;;;;;;4.77;69.05;99562.22;10326783;28;20043;-83